Terminal Aerodrome Forecast
Issued by NWS

Home | Current Version | Previous Version | Text Only | Print | Product List | Glossary On
Versions: 1 2 3 4 5 6 7 8 9 10 11 12 13 14 15 16
000
FTUS45 KREV 262320
TAFTVL
TAF
KTVL 262320Z 2700/2724 04006KT P6SM SCT070
     FM270200 VRB03KT P6SM SKC
     FM271700 05008KT P6SM SCT070=

USA.gov is the U.S. government's official web portal to all federal, state and local government web resources and services.